createdAt,value
2018-11-27T00:00:50.189Z,2.75
2018-11-27T00:15:52.564Z,2.55
2018-11-27T00:30:50.931Z,2.37
2018-11-27T00:45:52.808Z,2.10
2018-11-27T01:00:51.215Z,2.70
2018-11-27T01:15:52.663Z,3.42
2018-11-27T01:30:52.664Z,5.15
2018-11-27T01:45:54.004Z,4.92
2018-11-27T02:00:50.957Z,4.70
2018-11-27T02:15:52.843Z,4.25
2018-11-27T02:30:50.767Z,6.15
2018-11-27T02:45:53.212Z,7.10
2018-11-27T03:00:53.139Z,8.65
2018-11-27T03:15:51.554Z,11.93
2018-11-27T03:30:51.013Z,9.00
2018-11-27T03:45:51.354Z,10.55
2018-11-27T04:00:53.305Z,8.48
2018-11-27T04:15:52.846Z,9.70
2018-11-27T04:30:51.396Z,9.30
2018-11-27T04:45:50.681Z,10.85
2018-11-27T05:00:51.599Z,8.13
2018-11-27T05:15:52.591Z,5.80
2018-11-27T05:30:50.374Z,8.93
2018-11-27T05:45:51.311Z,15.20
2018-11-27T06:00:50.860Z,16.07
2018-11-27T06:15:50.665Z,13.68
2018-11-27T06:30:50.935Z,16.48
2018-11-27T06:45:53.040Z,19.00
2018-11-27T07:00:51.502Z,13.45
2018-11-27T07:15:54.031Z,11.75
2018-11-27T07:30:52.917Z,14.45
2018-11-27T07:45:55.183Z,14.28
2018-11-27T08:00:53.208Z,15.43
2018-11-27T08:15:51.106Z,14.00
2018-11-27T08:30:51.118Z,15.18
2018-11-27T08:45:50.380Z,12.90
2018-11-27T09:00:50.201Z,12.43
2018-11-27T09:15:51.288Z,20.55
2018-11-27T09:30:51.234Z,33.63
2018-11-27T09:45:50.746Z,27.65
2018-11-27T10:00:50.519Z,29.72
2018-11-27T10:15:50.901Z,29.72
2018-11-27T10:30:50.452Z,58.00
2018-11-27T10:45:49.790Z,56.63
2018-11-27T11:00:55.459Z,43.15
2018-11-27T11:15:50.194Z,59.60
2018-11-27T11:30:50.637Z,49.25
2018-11-27T11:45:51.991Z,37.73
2018-11-27T12:00:52.147Z,33.55
2018-11-27T12:15:51.840Z,36.73
2018-11-27T12:30:50.749Z,37.23
2018-11-27T12:45:51.195Z,35.90
2018-11-27T13:00:51.204Z,28.77
2018-11-27T13:15:51.568Z,38.55
2018-11-27T13:30:55.392Z,40.92
2018-11-27T13:45:50.732Z,43.98
2018-11-27T14:00:52.749Z,44.03
2018-11-27T14:15:51.323Z,43.63
2018-11-27T14:30:51.348Z,50.45
2018-11-27T14:45:52.606Z,63.73
2018-11-27T15:00:50.539Z,41.02
2018-11-27T15:15:50.480Z,33.83
2018-11-27T15:30:50.469Z,22.75
2018-11-27T15:45:50.840Z,25.23
2018-11-27T16:00:52.912Z,20.30
2018-11-27T16:15:52.878Z,17.02
2018-11-27T16:30:53.458Z,8.20
2018-11-27T17:00:54.141Z,8.60
2018-11-27T17:45:52.661Z,14.75
2018-11-27T18:00:51.440Z,14.33
2018-11-27T18:15:51.234Z,18.27
2018-11-27T18:30:54.346Z,16.95
2018-11-27T18:45:50.628Z,19.12
2018-11-27T19:00:51.441Z,22.07
2018-11-27T19:15:52.537Z,13.62
2018-11-27T19:30:52.741Z,10.70
2018-11-27T20:00:56.288Z,9.33
2018-11-27T20:30:55.492Z,8.35
2018-11-27T20:45:57.184Z,8.58
2018-11-27T21:30:54.296Z,9.35
2018-11-27T21:45:59.250Z,10.08
2018-11-27T22:00:53.529Z,6.90
2018-11-27T22:15:57.045Z,6.12
2018-11-27T22:30:52.839Z,4.62
2018-11-27T22:45:50.683Z,3.12
2018-11-27T23:00:52.595Z,2.55
2018-11-27T23:15:51.373Z,1.90
2018-11-27T23:30:53.224Z,2.22
2018-11-27T23:45:51.631Z,2.47
